• Join FlightAware (Why Join?)
  • Login
  • US Flag 
04:19AM EDT


 

Airport Tracker/Info


-or-


 

Live Flight TrackerFlight Track Log ✈ MTN7305 ✈ 05-Jun-2013 ✈ KBWI - KEWR

Flight Track Log - Related Links

Times and Time Zones

All times are in EDT time to prevent confusion due to time zone crossing. See the MTN7305 flight status page for this flight to view local times or setup timezone preferences in your user account.

Time Position Orientation Groundspeed Altitude Reporting Facility
EDT Latitude Longitude Course Direction KTS MPH feet Rate Location/Type
10:53PM 39.1667 -76.6500 38° Northeast 83 96 1,200  Level Potomac TRACON
10:54PM 39.1833 -76.6333 38° Northeast 122 140 2,100 900 Climbing Potomac TRACON
10:55PM 39.2167 -76.6167 21° North 121 139 3,000 900 Climbing Potomac TRACON
10:56PM 39.2333 -76.6000 38° Northeast 124 143 3,900 780 Climbing Potomac TRACON
10:57PM 39.2667 -76.5667 38° Northeast 122 140 4,600 540 Climbing Potomac TRACON
10:58PM 39.3000 -76.5333 38° Northeast 142 163 5,000 180 Climbing Potomac TRACON
10:59PM 39.3167 -76.5000 57° Northeast 166 191 5,000  Level Potomac TRACON
11:00PM 39.3500 -76.4500 49° Northeast 170 196 5,000  Level Potomac TRACON
11:01PM 39.3833 -76.4000 49° Northeast 174 200 5,000  Level Potomac TRACON
11:03PM 39.4167 -76.3500 49° Northeast 174 200 5,000  Level Potomac TRACON
11:04PM 39.4500 -76.3167 38° Northeast 172 198 5,000  Level Potomac TRACON
11:04PM 39.4833 -76.2667 49° Northeast 172 198 5,000  Level Potomac TRACON
11:05PM 39.5167 -76.2167 49° Northeast 171 197 5,000  Level Potomac TRACON
11:06PM 39.5500 -76.1833 38° Northeast 172 198 5,000  Level Potomac TRACON
11:07PM 39.5833 -76.1333 49° Northeast 172 198 5,000  Level Potomac TRACON
11:10PM 39.6667 -76.0333 43° Northeast 174 200 5,000  Level Philadelphia TRACON
11:11PM 39.7000 -75.9833 49° Northeast 175 201 5,000  Level Philadelphia TRACON
11:12PM 39.7333 -75.9333 49° Northeast 173 199 5,000  Level Philadelphia TRACON
11:13PM 39.7500 -75.9000 57° Northeast 173 199 5,000  Level Philadelphia TRACON
11:14PM 39.7833 -75.8500 49° Northeast 174 200 5,000  Level Philadelphia TRACON
11:15PM 39.8333 -75.8000 38° Northeast 174 200 5,000  Level Philadelphia TRACON
11:16PM 39.8500 -75.7500 67° East 173 199 5,000  Level Philadelphia TRACON
11:17PM 39.8833 -75.7167 37° Northeast 174 200 5,000  Level Philadelphia TRACON
11:18PM 39.9167 -75.6667 49° Northeast 176 203 5,000  Level Philadelphia TRACON
11:19PM 39.9500 -75.6000 57° Northeast 175 201 5,000  Level Philadelphia TRACON
11:20PM 39.9667 -75.5500 66° East 176 203 5,000  Level Philadelphia TRACON
11:21PM 40.0000 -75.5000 49° Northeast 175 201 5,000  Level Philadelphia TRACON
11:22PM 40.0167 -75.4500 66° East 177 204 5,000  Level Philadelphia TRACON
11:23PM 40.0500 -75.3833 57° Northeast 175 201 5,000  Level Philadelphia TRACON
11:24PM 40.0667 -75.3333 66° East 174 200 5,000  Level Philadelphia TRACON
11:25PM 40.1000 -75.2833 49° Northeast 175 201 5,000  Level Philadelphia TRACON
11:26PM 40.1167 -75.2333 66° East 174 200 5,000  Level Philadelphia TRACON
11:27PM 40.1333 -75.1667 72° East 171 197 5,000  Level Philadelphia TRACON
11:28PM 40.1667 -75.1167 49° Northeast 173 199 5,000  Level New York TRACON
11:29PM 40.1833 -75.0667 66° East 172 198 5,000  Level New York TRACON
11:30PM 40.2167 -75.0000 57° Northeast 170 196 5,000  Level New York TRACON
11:32PM 40.2500 -74.9000 66° East 171 197 5,000  Level New York TRACON
11:33PM 40.2833 -74.8667 37° Northeast 175 201 5,000  Level New York TRACON
11:34PM 40.3333 -74.8333 27° Northeast 175 201 5,000  Level New York TRACON
11:35PM 40.3667 -74.8000 37° Northeast 178 205 5,000  Level New York TRACON
11:36PM 40.4167 -74.7500 37° Northeast 177 204 5,000 -240 Level New York TRACON
11:37PM 40.4500 -74.7167 37° Northeast 186 214 4,500 -540 Descending New York TRACON
11:38PM 40.5000 -74.6667 37° Northeast 184 212 4,000 -480 Descending New York TRACON
11:39PM 40.5333 -74.6333 37° Northeast 183 211 3,600 -480 Descending New York TRACON
11:40PM 40.5833 -74.6000 27° Northeast 184 212 3,100 -300 Descending New York TRACON
11:41PM 40.6167 -74.5500 49° Northeast 177 204 3,000 -60 Descending New York TRACON
11:42PM 40.6500 -74.5167 37° Northeast 175 201 3,000  Level New York TRACON
11:43PM 40.7000 -74.5000 14° North 172 198 3,000  Level New York TRACON
11:44PM 40.7500 -74.4833 14° North 172 198 3,000  Level New York TRACON
11:45PM 40.7833 -74.4667 21° North 167 192 3,000  Level New York TRACON
11:46PM 40.8167 -74.4333 37° Northeast 170 196 3,000  Level New York TRACON
11:46PM 40.8667 -74.4167 14° North 168 193 3,000  Level New York TRACON
11:48PM 40.9167 -74.3833 27° Northeast 170 196 3,000  Level New York TRACON
11:48PM 40.9500 -74.3667 21° North 169 194 3,000  Level New York TRACON
11:49PM 40.9833 -74.3333 37° Northeast 169 194 3,000  Level New York TRACON
11:50PM 41.0000 -74.2833 66° East 159 183 3,000  Level New York TRACON
11:52PM 41.0167 -74.2167 72° East 163 188 3,000  Level New York TRACON
11:53PM 40.9833 -74.1667 131° Southeast 160 184 3,000  Level New York TRACON
11:53PM 40.9500 -74.1500 159° South 162 186 3,000  Level New York TRACON
11:55PM 40.9167 -74.1167 143° Southeast 163 188 3,000  Level New York TRACON
11:55PM 40.8667 -74.1167 180° South 163 188 3,000 -300 Level New York TRACON
11:56PM 40.8333 -74.1000 159° South 165 190 2,500 -300 Descending New York TRACON
11:57PM 40.7833 -74.1000 180° South 155 178 2,400 -660 Descending New York TRACON
11:59PM 40.7333 -74.1333 207° Southwest 143 165 1,100 -960 Descending New York TRACON
11:59PM 40.7167 -74.1500 217° Southwest 122 140 500 -900 Descending New York TRACON
12:01AM 40.6925 -74.1687 183° South  Level Estimated
12:08AM 40.6925 -74.1687 183° South  Level Estimated